Time;durP1;ratioP1;P1;durP2;ratioP2;P2;SDS_P1;SDS_P2;PMS_P1;PMS_P2;Temp;Humidity;BMP_temperature;BMP_pressure;BME280_temperature;BME280_humidity;BME280_pressure;Samples;Min_cycle;Max_cycle;Signal;HPM_P1;HPM_P2
2023/01/29 00:00:09;;;;;;;6.50;3.93;;;0.60;76.20;;;4.25;47.22;98675.75;5031382;28;20053;-44
2023/01/29 00:02:39;;;;;;;5.30;3.80;;;0.60;77.10;;;4.24;47.34;98676.69;5032757;28;20053;-48
2023/01/29 00:05:07;;;;;;;6.37;3.80;;;0.50;78.00;;;4.24;47.83;98679.31;5031495;28;20048;-42
2023/01/29 00:07:55;;;;;;;7.00;4.50;;;0.60;78.50;;;4.24;47.43;98671.41;5032411;28;20034;-44
2023/01/29 00:10:24;;;;;;;9.97;4.90;;;0.60;78.80;;;4.26;47.67;98669.53;5032170;28;20505;-44
2023/01/29 00:12:52;;;;;;;8.07;4.30;;;0.60;77.60;;;4.26;47.59;98677.44;5030225;28;20060;-42
2023/01/29 00:15:20;;;;;;;6.00;4.50;;;0.60;77.80;;;4.24;47.41;98678.50;5032075;28;20044;-45
2023/01/29 00:17:47;;;;;;;6.47;4.37;;;0.60;78.00;;;4.27;48.03;98665.13;5032306;28;20042;-46
2023/01/29 00:20:15;;;;;;;6.63;4.73;;;0.60;78.60;;;4.26;47.13;98663.41;5030982;28;20037;-45
2023/01/29 00:22:44;;;;;;;9.33;6.37;;;0.60;76.70;;;4.23;47.58;98672.38;5031900;28;20045;-47
2023/01/29 00:25:11;;;;;;;9.30;5.93;;;0.60;77.90;;;4.24;47.69;98671.41;5032231;28;20064;-46
2023/01/29 00:27:39;;;;;;;10.27;6.17;;;0.70;77.80;;;4.29;48.00;98672.00;5031859;28;20049;-43
2023/01/29 00:30:15;;;;;;;8.47;5.07;;;0.70;77.90;;;4.33;47.52;98675.28;5024248;28;20073;-45
2023/01/29 00:32:44;;;;;;;7.37;4.40;;;0.80;77.10;;;4.32;47.67;98669.16;5014571;28;20064;-45
2023/01/29 00:35:11;;;;;;;7.50;4.73;;;0.80;75.70;;;4.26;47.22;98672.16;5022876;28;20104;-43
2023/01/29 00:37:39;;;;;;;6.07;4.43;;;0.70;77.40;;;4.23;47.45;98672.38;5030974;28;20057;-43
2023/01/29 00:40:08;;;;;;;8.77;5.20;;;0.60;77.70;;;4.16;46.77;98665.78;5030512;28;20068;-44
2023/01/29 00:45:22;;;;;;;7.00;3.83;;;0.50;78.30;;;4.06;47.96;98672.59;5025114;28;20420;-43
2023/01/29 00:47:50;;;;;;;5.40;3.87;;;0.30;78.00;;;3.99;47.79;98677.38;5030547;28;20053;-42
2023/01/29 00:50:17;;;;;;;7.17;4.27;;;0.30;78.00;;;3.90;47.14;98675.31;5030117;28;20453;-43
2023/01/29 00:52:47;;;;;;;6.93;4.57;;;0.20;78.80;;;3.88;47.84;98672.78;5030080;28;20517;-43
2023/01/29 00:55:15;;;;;;;8.17;4.63;;;0.20;79.40;;;3.92;48.11;98678.72;5030324;28;20049;-42
2023/01/29 00:57:43;;;;;;;6.97;4.40;;;0.30;79.50;;;3.88;47.84;98674.56;5030118;28;20052;-42
2023/01/29 01:00:14;;;;;;;6.83;4.23;;;0.30;78.60;;;3.83;47.91;98671.38;5030044;28;20041;-42
2023/01/29 01:05:28;;;;;;;8.03;4.30;;;0.10;79.00;;;3.72;48.03;98677.28;5025823;28;20044;-42
2023/01/29 01:07:58;;;;;;;6.10;4.20;;;0.10;78.70;;;3.64;47.65;98679.53;5013828;28;20425;-43
2023/01/29 01:10:30;;;;;;;9.07;5.00;;;0.00;78.60;;;3.67;48.05;98674.09;5029724;28;20053;-43
2023/01/29 01:13:05;;;;;;;7.43;4.50;;;0.10;79.30;;;3.68;47.94;98670.50;5029100;28;20501;-42
2023/01/29 01:15:37;;;;;;;7.13;4.57;;;0.10;79.00;;;3.68;48.32;98671.38;5030287;28;20493;-42
2023/01/29 01:18:05;;;;;;;6.90;4.50;;;0.00;79.70;;;3.70;48.08;98672.13;5030073;28;20052;-43
2023/01/29 01:20:35;;;;;;;6.37;4.20;;;0.10;79.30;;;3.75;47.86;98664.75;5013452;28;20045;-42
2023/01/29 01:23:02;;;;;;;5.77;3.73;;;0.20;79.40;;;3.81;48.38;98660.91;5031288;28;20520;-42
2023/01/29 01:25:30;;;;;;;6.67;3.93;;;0.20;79.30;;;3.87;47.75;98670.22;5030024;28;20421;-42
2023/01/29 01:27:59;;;;;;;7.17;4.20;;;0.30;78.70;;;3.89;47.69;98668.34;5031622;28;20109;-42
2023/01/29 01:30:29;;;;;;;6.53;4.30;;;0.40;78.50;;;3.89;47.77;98663.91;5029699;28;20048;-42
2023/01/29 01:32:56;;;;;;;8.53;4.73;;;0.30;77.00;;;3.85;47.54;98670.31;5029582;28;20058;-42
2023/01/29 01:35:24;;;;;;;5.23;4.23;;;0.20;76.60;;;3.84;47.80;98670.41;5030983;28;20481;-42
2023/01/29 01:37:52;;;;;;;10.13;4.23;;;0.20;78.20;;;3.86;47.94;98681.72;5030287;28;20420;-42
2023/01/29 01:40:22;;;;;;;7.93;4.50;;;0.20;77.70;;;3.86;47.39;98684.34;5030635;28;20046;-42
2023/01/29 01:42:56;;;;;;;6.40;4.17;;;0.20;78.50;;;3.88;47.59;98674.56;5030847;28;20458;-42
2023/01/29 01:45:34;;;;;;;6.75;4.55;;;0.30;78.10;;;3.87;47.62;98670.22;5029458;28;20042;-42
2023/01/29 01:48:22;;;;;;;13.87;7.33;;;0.30;77.30;;;3.87;48.06;98675.50;5029283;28;20437;-46
2023/01/29 01:51:02;;;;;;;12.13;6.27;;;0.30;77.90;;;3.94;47.67;98677.66;5029677;28;20045;-43
2023/01/29 01:53:42;;;;;;;12.07;6.70;;;0.30;78.00;;;4.00;47.81;98667.69;5029432;28;20049;-42
2023/01/29 01:56:26;;;;;;;7.03;4.77;;;0.40;78.00;;;4.03;47.60;98665.72;5029546;28;20045;-43
2023/01/29 01:58:57;;;;;;;8.37;4.97;;;0.50;77.80;;;4.04;47.80;98654.22;5030769;28;20041;-42
2023/01/29 02:01:29;;;;;;;5.27;3.80;;;0.50;77.50;;;4.08;47.79;98660.16;5013007;28;20053;-42
2023/01/29 02:09:57;;;;;;;7.33;4.50;;;0.50;78.00;;;4.07;47.66;98667.22;5031236;28;20405;-43
2023/01/29 02:12:29;;;;;;;6.60;4.60;;;0.50;78.20;;;4.09;47.94;98660.06;5026460;28;20417;-42
2023/01/29 02:14:58;;;;;;;6.33;4.57;;;0.50;78.10;;;4.12;47.71;98667.75;5033427;28;20489;-42
2023/01/29 02:17:26;;;;;;;9.53;4.83;;;0.60;78.00;;;4.11;47.65;98666.09;5033060;28;20041;-42
2023/01/29 02:20:18;;;;;;;7.03;4.50;;;0.60;78.00;;;4.11;48.17;98660.81;5032803;28;20061;-42
2023/01/29 02:23:14;;;;;;;6.73;4.03;;;0.60;78.00;;;4.10;47.82;98674.09;5033395;28;20412;-43
2023/01/29 02:26:00;;;;;;;6.67;4.40;;;0.60;78.00;;;4.09;47.47;98677.66;5028999;28;20041;-43
2023/01/29 02:28:42;;;;;;;7.67;4.57;;;0.60;77.20;;;4.08;47.70;98674.16;5028123;28;20033;-42
2023/01/29 02:31:42;;;;;;;9.03;4.53;;;0.50;78.00;;;3.97;47.91;98679.25;5032224;28;20125;-42
2023/01/29 02:34:21;;;;;;;5.83;4.13;;;0.40;77.80;;;4.00;47.38;98672.97;5032902;28;20050;-42
2023/01/29 02:37:08;;;;;;;5.23;4.40;;;0.40;77.70;;;3.94;48.21;98667.13;5016587;28;20037;-42
2023/01/29 02:40:13;;;;;;;8.60;5.10;;;0.40;78.00;;;3.89;48.28;98663.91;5027554;28;20412;-43
2023/01/29 02:43:40;;;;;;;8.63;4.57;;;0.40;78.00;;;3.84;48.14;98668.63;5028636;28;20057;-42
2023/01/29 02:46:17;;;;;;;5.93;3.70;;;0.30;77.90;;;3.85;47.78;98664.22;5032160;28;20048;-42
2023/01/29 02:49:14;;;;;;;7.80;4.33;;;0.20;78.10;;;3.74;47.77;98659.59;5034193;28;20057;-43
2023/01/29 02:51:53;;;;;;;7.67;4.80;;;0.20;78.50;;;3.81;48.00;98655.66;5029423;28;20033;-42
2023/01/29 02:54:29;;;;;;;8.33;4.33;;;0.10;79.20;;;3.84;47.80;98657.22;5025243;28;20053;-42
2023/01/29 02:57:27;;;;;;;7.80;4.50;;;0.20;78.40;;;3.80;47.74;98650.47;5032871;28;20048;-42
2023/01/29 03:00:10;;;;;;;9.43;5.00;;;0.20;77.20;;;3.80;48.16;98661.88;5030958;28;20068;-42
2023/01/29 03:03:01;;;;;;;7.30;4.10;;;0.20;77.70;;;3.80;47.94;98668.91;5017098;28;20049;-42
2023/01/29 03:05:49;;;;;;;8.60;5.67;;;0.20;77.70;;;3.77;48.03;98667.31;5010956;28;20054;-43
2023/01/29 03:08:36;;;;;;;8.40;4.73;;;0.20;77.70;;;3.83;47.78;98669.56;5032636;28;20044;-42
2023/01/29 03:11:06;;;;;;;9.30;4.03;;;0.20;78.40;;;3.83;47.71;98660.81;5016291;28;20060;-45
2023/01/29 03:13:56;;;;;;;5.67;3.97;;;0.10;77.30;;;3.81;47.63;98658.28;5031259;28;20500;-42
2023/01/29 03:16:32;;;;;;;6.23;4.20;;;0.10;78.00;;;3.83;47.47;98666.09;5011271;28;20397;-42
2023/01/29 03:19:18;;;;;;;6.67;4.40;;;0.20;78.20;;;3.78;47.79;98662.88;5031480;28;20061;-42
2023/01/29 03:21:58;;;;;;;6.67;4.20;;;0.20;78.00;;;3.71;47.99;98660.63;5031510;28;20049;-42
2023/01/29 03:34:02;;;;;;;8.75;3.92;;;0.10;78.50;;;3.75;47.88;98653.38;5028432;28;20509;-42
2023/01/29 03:36:44;;;;;;;5.63;4.17;;;0.20;78.50;;;3.81;47.66;98662.72;5009112;28;20048;-42
2023/01/29 03:39:14;;;;;;;7.30;4.27;;;0.20;78.40;;;3.82;47.83;98657.34;5016886;28;20057;-42
2023/01/29 03:42:03;;;;;;;9.67;4.57;;;0.20;77.80;;;3.79;48.03;98652.25;5031778;28;20056;-42
2023/01/29 03:44:44;;;;;;;7.23;4.07;;;0.20;77.60;;;3.79;47.63;98654.91;5009789;28;20046;-42
2023/01/29 03:47:50;;;;;;;5.50;4.07;;;0.10;78.20;;;3.74;47.70;98656.94;5009138;28;20057;-42
2023/01/29 03:50:52;;;;;;;6.67;4.30;;;0.10;78.20;;;3.73;47.83;98660.53;5031457;28;20049;-42
2023/01/29 03:53:56;;;;;;;8.07;5.97;;;0.10;78.40;;;3.63;48.06;98662.06;5031378;28;20045;-42
2023/01/29 03:56:44;;;;;;;9.77;4.80;;;0.00;78.30;;;3.66;47.97;98659.22;5024357;28;20509;-42
2023/01/29 03:59:38;;;;;;;6.37;4.10;;;0.00;78.70;;;3.58;48.18;98653.56;5032605;28;20042;-42
2023/01/29 04:03:15;;;;;;;5.80;4.07;;;-0.10;78.70;;;3.53;47.77;98648.59;5027171;28;20049;-43
2023/01/29 04:06:15;;;;;;;8.00;4.77;;;-0.10;79.80;;;3.58;47.66;98656.19;5026817;28;20045;-43
2023/01/29 04:09:33;;;;;;;7.03;4.37;;;-0.10;79.40;;;3.58;48.58;98657.03;5014987;28;20061;-42
2023/01/29 04:12:10;;;;;;;6.77;4.40;;;0.00;79.00;;;3.67;47.60;98660.91;5029115;28;20049;-43
2023/01/29 04:14:41;;;;;;;6.10;4.07;;;0.10;78.70;;;3.62;47.88;98657.72;5030265;28;20048;-42
2023/01/29 04:17:37;;;;;;;7.60;4.63;;;0.00;78.10;;;3.58;47.84;98653.56;5030918;28;20056;-42
2023/01/29 04:20:14;;;;;;;6.43;4.40;;;-0.10;77.80;;;3.55;47.99;98652.81;5031924;28;20050;-43
2023/01/29 04:22:47;;;;;;;9.63;5.43;;;-0.10;79.00;;;3.55;47.97;98665.13;5014405;28;20056;-42
2023/01/29 04:25:28;;;;;;;6.20;4.22;;;-0.10;79.40;;;3.51;47.75;98667.09;5031039;28;20052;-43
2023/01/29 04:28:23;;;;;;;6.63;3.93;;;-0.20;79.20;;;3.46;47.92;98674.41;5032158;28;20425;-42
2023/01/29 04:30:57;;;;;;;7.50;4.38;;;-0.10;78.80;;;3.52;48.09;98678.47;5025749;28;20045;-42
2023/01/29 04:33:35;;;;;;;7.40;4.30;;;-0.20;79.80;;;3.56;47.99;98672.09;5030946;28;20049;-42
2023/01/29 04:36:15;;;;;;;7.13;4.50;;;-0.10;79.80;;;3.61;48.07;98667.41;5030858;28;20048;-42
2023/01/29 04:39:23;;;;;;;7.13;3.93;;;0.00;79.40;;;3.59;48.39;98665.78;5031961;28;20045;-43
2023/01/29 04:41:59;;;;;;;8.27;4.47;;;0.00;78.80;;;3.67;48.32;98666.19;5027142;28;20053;-43
2023/01/29 04:44:41;;;;;;;8.87;4.40;;;0.10;78.80;;;3.64;47.96;98667.19;5024233;28;20086;-42
2023/01/29 04:47:47;;;;;;;8.17;5.07;;;0.00;78.30;;;3.61;48.11;98666.56;5030603;28;20477;-42
2023/01/29 04:50:31;;;;;;;6.50;4.27;;;0.00;79.10;;;3.64;48.13;98664.56;5033051;28;20054;-42
2023/01/29 04:53:39;;;;;;;8.23;5.35;;;0.00;78.70;;;3.57;48.31;98665.91;5029958;28;20049;-43
2023/01/29 04:56:33;;;;;;;7.27;4.53;;;-0.10;78.90;;;3.57;48.50;98668.53;5031548;28;20050;-45
2023/01/29 04:59:10;;;;;;;7.50;4.97;;;-0.10;79.40;;;3.58;48.27;98664.94;5031473;28;20049;-42
2023/01/29 05:01:38;;;;;;;7.57;4.77;;;0.00;79.80;;;3.61;48.22;98666.56;5031203;28;20047;-42
2023/01/29 05:04:12;;;;;;;10.23;5.13;;;0.00;79.60;;;3.59;48.25;98665.78;5031793;28;20041;-43
2023/01/29 05:06:41;;;;;;;6.22;4.95;;;-0.10;79.30;;;3.53;48.15;98659.13;5029839;28;20057;-42
2023/01/29 05:09:11;;;;;;;13.20;5.57;;;-0.10;79.80;;;3.55;48.44;98652.81;5027087;28;20053;-42
2023/01/29 05:11:40;;;;;;;8.80;5.03;;;-0.10;80.20;;;3.61;48.52;98656.88;5029106;28;20057;-42
2023/01/29 05:14:13;;;;;;;7.87;4.40;;;0.00;80.10;;;3.64;48.40;98659.28;5029946;28;20037;-42
2023/01/29 05:16:50;;;;;;;7.45;4.70;;;0.10;80.20;;;3.64;48.63;98656.66;5014254;28;20051;-47
2023/01/29 05:19:18;;;;;;;8.03;4.87;;;0.00;80.30;;;3.68;48.55;98668.72;5029992;28;20038;-42
2023/01/29 05:21:48;;;;;;;9.20;5.50;;;0.10;80.20;;;3.71;48.05;98668.53;5030931;28;20041;-42
2023/01/29 05:24:22;;;;;;;7.93;4.80;;;0.10;80.10;;;3.72;48.30;98682.53;5029865;28;20049;-43
2023/01/29 05:29:45;;;;;;;8.03;4.70;;;0.00;80.10;;;3.62;48.56;98684.88;5030114;28;20219;-42
2023/01/29 05:32:14;;;;;;;6.78;4.80;;;0.00;81.30;;;3.64;48.82;98674.25;5029500;28;20424;-43
2023/01/29 05:34:42;;;;;;;6.57;4.43;;;0.00;81.40;;;3.61;48.81;98674.47;5030912;28;20041;-42
2023/01/29 05:37:10;;;;;;;9.63;4.60;;;0.00;81.10;;;3.56;48.53;98664.19;5031008;28;20285;-42
2023/01/29 05:39:37;;;;;;;6.20;4.73;;;-0.10;81.60;;;3.49;48.87;98661.09;5030056;28;20049;-43
2023/01/29 05:42:05;;;;;;;9.47;5.53;;;-0.20;81.10;;;3.48;48.80;98650.66;5029880;28;20046;-42
2023/01/29 05:44:32;;;;;;;6.57;4.57;;;-0.20;81.60;;;3.47;48.58;98634.00;5030934;28;20045;-42
2023/01/29 05:47:01;;;;;;;6.50;3.77;;;-0.20;81.60;;;3.53;48.51;98622.25;5030686;28;20048;-42
2023/01/29 05:49:29;;;;;;;6.73;4.80;;;-0.20;81.10;;;3.58;48.77;98616.69;5023001;28;20057;-42
2023/01/29 05:51:56;;;;;;;8.23;5.00;;;-0.10;81.10;;;3.62;48.57;98619.03;5030459;28;20049;-42
2023/01/29 05:54:24;;;;;;;8.33;5.23;;;0.00;80.80;;;3.65;48.72;98626.78;5030745;28;20041;-42
2023/01/29 05:56:51;;;;;;;9.93;5.10;;;0.00;80.50;;;3.67;48.94;98634.59;5030483;28;20057;-42
2023/01/29 05:59:19;;;;;;;7.50;4.77;;;0.00;80.70;;;3.69;48.51;98644.06;5030652;28;20049;-43
2023/01/29 06:01:48;;;;;;;7.57;4.40;;;0.10;80.00;;;3.71;48.46;98646.63;5030460;28;20053;-42
2023/01/29 06:04:15;;;;;;;7.93;4.37;;;0.10;79.60;;;3.69;48.40;98627.44;5030711;28;20052;-42
2023/01/29 06:06:43;;;;;;;8.00;5.00;;;0.10;79.00;;;3.64;48.49;98640.03;5030818;28;20408;-42
2023/01/29 06:09:10;;;;;;;7.73;4.90;;;-0.10;79.20;;;3.61;48.29;98643.69;5029401;28;20053;-42
2023/01/29 06:11:39;;;;;;;6.63;4.77;;;-0.10;79.80;;;3.53;48.02;98636.25;5030385;28;20040;-42
2023/01/29 06:14:06;;;;;;;8.13;5.00;;;-0.20;79.20;;;3.54;48.15;98635.31;5030133;28;20504;-42
2023/01/29 06:16:34;;;;;;;8.40;5.60;;;-0.10;80.00;;;3.53;48.25;98632.78;5030508;28;20060;-46
2023/01/29 06:19:01;;;;;;;8.67;5.50;;;-0.20;79.50;;;3.52;48.35;98637.19;5030539;28;20049;-43
2023/01/29 06:21:29;;;;;;;8.47;4.50;;;-0.20;79.60;;;3.53;48.26;98640.69;5022299;28;20045;-44
2023/01/29 06:23:57;;;;;;;9.53;5.10;;;-0.20;79.30;;;3.52;48.13;98639.81;5030682;28;20049;-43
2023/01/29 06:26:24;;;;;;;6.17;4.03;;;-0.20;79.90;;;3.49;48.29;98644.41;5029497;28;20052;-43
2023/01/29 06:28:52;;;;;;;8.97;4.80;;;-0.20;79.10;;;3.44;48.19;98644.72;5030417;28;20049;-43
2023/01/29 06:31:19;;;;;;;8.03;4.33;;;-0.30;79.30;;;3.46;48.41;98644.63;5029786;28;20041;-43
2023/01/29 06:34:04;;;;;;;7.50;4.38;;;-0.20;79.50;;;3.44;48.34;98646.50;5029836;28;20049;-44
2023/01/29 06:36:32;;;;;;;6.93;4.60;;;-0.20;79.70;;;3.47;48.22;98646.31;5022532;28;20037;-42
2023/01/29 06:39:00;;;;;;;10.47;4.97;;;-0.20;79.60;;;3.48;48.27;98640.09;5030058;28;20447;-43
2023/01/29 06:41:27;;;;;;;9.87;6.07;;;-0.20;79.50;;;3.46;48.40;98642.84;5029945;28;20424;-43
2023/01/29 06:43:55;;;;;;;9.33;5.53;;;-0.20;79.50;;;3.45;48.44;98649.06;5030450;28;20045;-42
2023/01/29 06:46:22;;;;;;;7.33;5.37;;;-0.30;79.60;;;3.47;48.19;98646.31;5030123;28;20049;-46
2023/01/29 06:48:50;;;;;;;7.93;4.90;;;-0.20;80.20;;;3.46;48.39;98645.47;5030281;28;20092;-43
2023/01/29 06:51:17;;;;;;;6.83;4.40;;;-0.30;79.20;;;3.43;48.21;98644.78;5030146;28;20400;-46
2023/01/29 06:53:45;;;;;;;9.23;5.20;;;-0.30;80.00;;;3.43;48.27;98650.06;5030805;28;20042;-45
2023/01/29 06:56:13;;;;;;;8.27;4.87;;;-0.30;80.30;;;3.50;48.43;98654.88;5032861;28;20037;-43
2023/01/29 06:58:42;;;;;;;8.83;5.10;;;-0.20;80.50;;;3.53;48.43;98657.31;5033737;28;20038;-42
2023/01/29 07:01:11;;;;;;;6.20;4.60;;;-0.20;80.30;;;3.58;48.32;98653.56;5033163;28;20045;-42
2023/01/29 07:03:59;;;;;;;6.43;4.70;;;-0.10;79.90;;;3.60;48.75;98657.78;5032594;28;20068;-42
2023/01/29 07:06:30;;;;;;;7.67;4.70;;;-0.10;79.70;;;3.62;48.31;98655.06;5033561;28;20056;-43
2023/01/29 07:08:57;;;;;;;10.87;6.63;;;0.00;79.60;;;3.63;48.21;98660.25;5033426;28;20049;-43
2023/01/29 07:11:25;;;;;;;11.33;5.77;;;-0.10;79.10;;;3.63;48.65;98654.16;5032968;28;20527;-42
2023/01/29 07:13:52;;;;;;;6.97;4.70;;;0.00;79.50;;;3.64;48.67;98653.19;5032679;28;20048;-44
2023/01/29 07:16:20;;;;;;;7.67;4.70;;;0.00;79.60;;;3.63;48.43;98651.50;5033382;28;20049;-44
2023/01/29 07:18:48;;;;;;;8.23;4.73;;;-0.10;80.00;;;3.61;48.14;98658.66;5033165;28;20068;-43
2023/01/29 07:21:15;;;;;;;8.00;4.80;;;-0.10;79.10;;;3.59;48.47;98656.13;5033012;28;20045;-42
2023/01/29 07:23:43;;;;;;;6.37;4.23;;;-0.10;80.10;;;3.64;48.12;98663.72;5015488;28;20045;-42
2023/01/29 07:26:11;;;;;;;6.27;4.77;;;-0.10;80.20;;;3.64;47.99;98671.63;5033221;28;20425;-44
2023/01/29 07:28:39;;;;;;;6.67;5.17;;;-0.10;79.80;;;3.66;48.68;98677.66;5033379;28;20037;-48
2023/01/29 07:31:10;;;;;;;8.10;5.20;;;-0.10;79.70;;;3.66;48.44;98683.75;5032768;28;20052;-43
2023/01/29 07:33:38;;;;;;;6.60;4.80;;;0.00;80.30;;;3.69;48.47;98680.09;5031738;28;20045;-44
2023/01/29 07:36:10;;;;;;;6.50;4.73;;;0.00;79.70;;;3.73;48.65;98684.25;5033161;28;20390;-45
2023/01/29 07:38:37;;;;;;;8.23;5.10;;;0.10;81.00;;;3.79;48.66;98681.22;5025189;28;20044;-46
2023/01/29 07:41:05;;;;;;;8.57;4.93;;;0.10;79.60;;;3.73;48.05;98682.44;5032530;28;20045;-44
2023/01/29 07:43:33;;;;;;;8.17;5.60;;;0.00;78.90;;;3.70;48.27;98682.66;5032593;28;20048;-43
2023/01/29 07:46:02;;;;;;;8.47;4.73;;;0.00;79.50;;;3.73;48.09;98686.88;5033407;28;20064;-45
2023/01/29 07:48:30;;;;;;;8.53;5.10;;;0.00;79.60;;;3.71;48.17;98683.50;5031698;28;20037;-42
2023/01/29 07:50:57;;;;;;;8.83;5.90;;;0.00;79.40;;;3.74;48.49;98693.81;5032993;28;20045;-45
2023/01/29 07:53:27;;;;;;;8.57;5.93;;;0.10;80.20;;;3.79;48.31;98696.19;5029986;28;20041;-43
2023/01/29 07:55:55;;;;;;;11.40;6.63;;;0.10;79.30;;;3.82;48.48;98690.72;5030675;28;20505;-43
2023/01/29 07:58:23;;;;;;;12.43;6.70;;;0.10;80.10;;;3.88;48.71;98693.84;5032131;28;20052;-43
2023/01/29 08:00:50;;;;;;;11.77;6.63;;;0.20;80.10;;;3.91;48.88;98696.28;5032007;28;20053;-44
2023/01/29 08:03:21;;;;;;;29.50;13.03;;;0.20;79.50;;;3.99;48.51;98695.81;5031975;28;20042;-43
2023/01/29 08:05:49;;;;;;;20.70;9.60;;;0.30;79.10;;;3.96;48.12;98698.66;5031315;28;20046;-47
2023/01/29 08:08:18;;;;;;;13.90;8.67;;;0.30;78.80;;;3.97;48.20;98702.97;5030994;28;20041;-47
2023/01/29 08:10:45;;;;;;;10.73;6.83;;;0.20;79.00;;;4.00;48.17;98710.69;5031609;28;20045;-45
2023/01/29 08:13:13;;;;;;;30.83;14.47;;;0.20;78.70;;;4.02;48.14;98714.09;5031697;28;20030;-46
2023/01/29 08:15:44;;;;;;;55.70;24.43;;;0.30;79.10;;;4.06;48.36;98718.22;5031877;28;20053;-42
2023/01/29 08:18:13;;;;;;;27.47;15.27;;;0.40;79.20;;;4.12;48.34;98711.72;5031586;28;20045;-45
2023/01/29 08:20:41;;;;;;;17.10;10.60;;;0.40;79.10;;;4.16;48.50;98709.75;5031528;28;20037;-43
2023/01/29 08:23:14;;;;;;;14.00;9.83;;;0.50;78.70;;;4.19;48.21;98706.91;5031427;28;20045;-42
2023/01/29 08:25:42;;;;;;;9.68;6.78;;;0.50;78.50;;;4.23;48.11;98711.91;5023333;28;20050;-44
2023/01/29 08:28:11;;;;;;;14.87;10.27;;;0.60;78.10;;;4.27;48.05;98712.59;5030554;28;20413;-42
2023/01/29 08:30:39;;;;;;;51.47;25.30;;;0.60;77.30;;;4.25;47.78;98710.03;5023454;28;20508;-43
2023/01/29 08:33:06;;;;;;;52.37;26.47;;;0.50;76.70;;;4.22;48.01;98715.47;5029105;28;20052;-44
2023/01/29 08:35:34;;;;;;;14.43;8.20;;;0.50;76.90;;;4.16;47.37;98718.50;5031302;28;20037;-43
2023/01/29 08:38:03;;;;;;;9.50;5.37;;;0.40;76.50;;;4.10;47.43;98714.47;5025610;28;20485;-43
2023/01/29 08:40:33;;;;;;;9.10;5.17;;;0.40;76.80;;;4.05;47.40;98716.53;5029770;28;20539;-43
2023/01/29 08:43:04;;;;;;;15.00;7.40;;;0.20;77.20;;;4.05;47.53;98713.91;5029753;28;20056;-45
2023/01/29 08:45:38;;;;;;;9.05;5.30;;;0.30;77.30;;;3.97;47.56;98716.13;5030995;28;20038;-45
2023/01/29 08:48:07;;;;;;;8.50;6.03;;;0.20;76.70;;;4.02;47.99;98723.78;5031188;28;20045;-43
2023/01/29 08:50:35;;;;;;;6.60;4.73;;;0.30;77.70;;;4.02;47.54;98719.34;5030817;28;20042;-44
2023/01/29 08:53:06;;;;;;;6.77;4.30;;;0.30;76.90;;;4.08;47.39;98715.50;5029771;28;20045;-43
2023/01/29 08:55:38;;;;;;;6.43;4.53;;;0.40;76.60;;;4.12;47.46;98714.38;5029836;28;20048;-45
2023/01/29 08:58:09;;;;;;;7.43;4.63;;;0.30;74.70;;;4.13;46.84;98708.16;5030555;28;20041;-43
2023/01/29 09:00:38;;;;;;;6.87;4.40;;;0.30;75.40;;;4.13;47.25;98718.72;5030409;28;20068;-43
2023/01/29 09:03:06;;;;;;;6.13;4.00;;;0.40;75.60;;;4.12;46.99;98725.75;5030633;28;20365;-44
2023/01/29 09:05:36;;;;;;;7.27;4.90;;;0.30;74.30;;;4.04;47.06;98725.38;5031287;28;20048;-45
2023/01/29 09:08:05;;;;;;;7.17;4.77;;;0.20;75.70;;;4.07;47.06;98726.97;5029555;28;20422;-44
2023/01/29 09:10:34;;;;;;;6.93;4.30;;;0.30;76.60;;;4.16;47.20;98730.84;5029646;28;20053;-46
2023/01/29 09:13:02;;;;;;;8.40;5.40;;;0.40;76.50;;;4.26;46.98;98729.31;5030534;28;20420;-43
2023/01/29 09:15:30;;;;;;;6.47;4.50;;;0.60;75.90;;;4.29;47.45;98737.91;5029512;28;20045;-47
2023/01/29 09:18:01;;;;;;;12.03;7.43;;;0.60;75.50;;;4.32;46.98;98735.09;5030181;28;20049;-46
2023/01/29 09:20:28;;;;;;;13.27;7.70;;;0.70;75.50;;;4.34;47.23;98733.19;5030334;28;20049;-43
2023/01/29 09:22:57;;;;;;;7.83;5.57;;;0.60;73.90;;;4.35;46.32;98739.31;5030491;28;20041;-44
2023/01/29 09:25:25;;;;;;;7.40;4.80;;;0.60;74.00;;;4.30;46.81;98733.47;5030212;28;20045;-44
2023/01/29 09:27:53;;;;;;;9.30;5.37;;;0.50;74.00;;;4.29;46.75;98734.41;5029363;28;20053;-45
2023/01/29 09:30:21;;;;;;;9.53;5.07;;;0.50;74.30;;;4.28;46.82;98741.47;5029727;28;20052;-44
2023/01/29 09:32:48;;;;;;;9.60;5.50;;;0.50;74.40;;;4.33;46.82;98743.81;5030693;28;20049;-43
2023/01/29 09:35:22;;;;;;;8.47;5.60;;;0.50;75.20;;;4.39;46.83;98737.34;5030132;28;20045;-45
2023/01/29 09:37:50;;;;;;;8.20;5.57;;;0.60;74.30;;;4.40;47.30;98725.81;5031482;28;20079;-45
2023/01/29 09:40:51;;;;;;;9.50;4.97;;;0.60;73.50;;;4.35;46.43;98718.22;5030857;28;20049;-47
2023/01/29 09:43:51;;;;;;;8.60;5.27;;;0.60;72.80;;;4.37;46.96;98705.78;5031051;28;20050;-44
2023/01/29 09:46:39;;;;;;;10.53;5.20;;;0.70;72.70;;;4.45;46.65;98700.03;5029961;28;20052;-43
2023/01/29 09:49:14;;;;;;;17.37;9.97;;;0.80;73.10;;;4.55;46.16;98690.56;5031121;28;20045;-45
2023/01/29 09:51:49;;;;;;;9.40;6.57;;;0.90;73.80;;;4.61;46.62;98692.81;5021494;28;20053;-45
2023/01/29 09:54:49;;;;;;;11.33;6.40;;;1.00;72.70;;;4.65;46.42;98681.16;5029499;28;20398;-43
2023/01/29 09:57:29;;;;;;;10.30;5.97;;;1.10;71.80;;;4.76;46.51;98672.53;5029925;28;20046;-47
2023/01/29 09:59:57;;;;;;;8.83;5.97;;;1.10;71.30;;;4.85;46.11;98660.56;5029826;28;20490;-44
2023/01/29 10:02:54;;;;;;;8.37;5.53;;;1.20;71.70;;;4.90;46.21;98658.44;5030406;28;20053;-43
2023/01/29 10:05:39;;;;;;;10.53;5.83;;;1.30;71.20;;;5.03;45.69;98667.25;5030938;28;20057;-47
2023/01/29 10:09:00;;;;;;;;;;;1.40;70.70;;;5.08;46.67;98672.22;5030465;28;20053;-47
2023/01/29 10:11:51;;;;;;;8.60;5.60;;;1.50;69.00;;;5.22;45.81;98668.66;4986861;28;20381;-47
2023/01/29 10:15:04;;;;;;;7.40;5.60;;;1.60;70.10;;;5.23;45.62;98670.34;5029484;28;20053;-44
2023/01/29 10:17:51;;;;;;;9.23;5.90;;;1.60;69.40;;;5.32;46.15;98675.03;5029746;28;20096;-47
2023/01/29 10:21:07;;;;;;;11.03;6.90;;;1.60;71.00;;;5.29;46.35;98675.22;5030798;28;20046;-46
2023/01/29 10:23:49;;;;;;;22.27;11.80;;;1.70;70.00;;;5.26;45.56;98670.16;5012992;28;20060;-44
2023/01/29 10:26:19;;;;;;;10.53;6.73;;;1.50;69.80;;;5.26;45.32;98667.50;5023956;28;20050;-44
2023/01/29 10:28:51;;;;;;;8.83;5.63;;;1.50;70.00;;;5.24;45.04;98667.59;5024327;28;20053;-44
2023/01/29 10:31:32;;;;;;;8.90;5.27;;;1.50;69.80;;;5.24;45.54;98670.25;5025578;28;20440;-43
2023/01/29 10:34:23;;;;;;;8.53;5.83;;;1.50;70.30;;;5.30;45.61;98672.47;5026770;28;20634;-45
2023/01/29 10:36:54;;;;;;;12.93;7.37;;;1.60;71.20;;;5.37;46.04;98670.28;5025541;28;20045;-44
2023/01/29 10:39:25;;;;;;;11.47;7.13;;;1.60;70.50;;;5.40;44.96;98670.06;5027873;28;20428;-43
2023/01/29 10:42:24;;;;;;;11.97;7.17;;;1.70;69.30;;;5.40;45.98;98674.50;5022312;28;20042;-45
2023/01/29 10:45:16;;;;;;;9.87;6.93;;;1.70;70.40;;;5.45;45.48;98675.88;5026680;28;20401;-43
2023/01/29 10:48:08;;;;;;;11.23;7.37;;;1.80;70.00;;;5.51;44.91;98675.47;5027873;28;20041;-43
2023/01/29 10:50:45;;;;;;;11.43;6.90;;;1.90;69.30;;;5.56;45.44;98679.59;5028420;28;20049;-43
2023/01/29 10:53:47;;;;;;;11.87;6.67;;;1.90;69.20;;;5.51;45.67;98679.91;5027561;28;20045;-43
2023/01/29 10:56:54;;;;;;;11.13;6.97;;;2.00;67.80;;;5.44;44.69;98674.19;5031035;28;20057;-44
2023/01/29 10:59:54;;;;;;;10.27;6.00;;;1.90;67.90;;;5.45;44.82;98675.06;5029880;28;20065;-46
2023/01/29 11:02:21;;;;;;;10.07;6.93;;;1.80;67.20;;;5.44;44.38;98671.53;5032569;28;20493;-43
2023/01/29 11:04:49;;;;;;;10.30;6.50;;;1.70;68.30;;;5.43;45.29;98675.16;5033285;28;20052;-45
2023/01/29 11:07:20;;;;;;;11.67;6.57;;;1.70;69.30;;;5.47;44.30;98678.44;5049104;28;20065;-43
2023/01/29 11:09:55;;;;;;;10.23;6.83;;;1.80;69.10;;;5.48;45.23;98680.94;5032866;28;20049;-43
2023/01/29 11:12:29;;;;;;;13.13;7.57;;;1.80;68.70;;;5.50;44.93;98675.56;5023857;28;20414;-46
2023/01/29 11:15:03;;;;;;;12.17;7.57;;;1.70;69.40;;;5.52;44.69;98666.59;5032509;28;20049;-47
2023/01/29 11:17:30;;;;;;;12.50;7.93;;;1.80;69.00;;;5.55;44.27;98662.06;5032440;28;20049;-45
2023/01/29 11:19:58;;;;;;;8.77;6.07;;;1.80;68.40;;;5.55;44.04;98654.97;5033455;28;20288;-44
2023/01/29 11:22:28;;;;;;;12.07;7.80;;;1.80;68.10;;;5.54;44.44;98640.06;5031966;28;20413;-43
2023/01/29 11:25:19;;;;;;;9.00;6.10;;;1.80;68.10;;;5.51;44.39;98635.84;5032267;28;20049;-46
2023/01/29 11:27:56;;;;;;;8.47;6.33;;;1.80;67.10;;;5.55;44.75;98628.56;5033516;28;20038;-43
2023/01/29 11:30:34;;;;;;;10.93;6.37;;;1.80;67.70;;;5.55;43.95;98625.91;5031772;28;20041;-44